sensor_id;sensor_type;location;lat;lon;timestamp;temperature;humidity
47338;DHT22;33069;51.970;5.892;2023-04-07T00:01:46;8.90;89.30
47338;DHT22;33069;51.970;5.892;2023-04-07T00:04:11;8.80;89.50
47338;DHT22;33069;51.970;5.892;2023-04-07T00:06:37;8.90;89.70
47338;DHT22;33069;51.970;5.892;2023-04-07T00:09:03;9.00;89.90
47338;DHT22;33069;51.970;5.892;2023-04-07T00:11:28;8.80;89.80
47338;DHT22;33069;51.970;5.892;2023-04-07T00:13:54;8.70;89.90
47338;DHT22;33069;51.970;5.892;2023-04-07T00:16:20;8.80;90.10
47338;DHT22;33069;51.970;5.892;2023-04-07T00:18:46;8.90;90.20
47338;DHT22;33069;51.970;5.892;2023-04-07T00:21:11;8.80;90.10
47338;DHT22;33069;51.970;5.892;2023-04-07T00:23:37;8.90;90.20
47338;DHT22;33069;51.970;5.892;2023-04-07T00:26:03;8.80;90.20
47338;DHT22;33069;51.970;5.892;2023-04-07T00:28:28;8.70;90.20
47338;DHT22;33069;51.970;5.892;2023-04-07T00:30:54;8.70;90.20
47338;DHT22;33069;51.970;5.892;2023-04-07T00:33:20;8.70;90.30
47338;DHT22;33069;51.970;5.892;2023-04-07T00:35:45;8.70;90.30
47338;DHT22;33069;51.970;5.892;2023-04-07T00:38:11;8.70;90.40
47338;DHT22;33069;51.970;5.892;2023-04-07T00:40:37;8.70;90.40
47338;DHT22;33069;51.970;5.892;2023-04-07T00:43:03;8.90;90.50
47338;DHT22;33069;51.970;5.892;2023-04-07T00:45:28;8.70;90.40
47338;DHT22;33069;51.970;5.892;2023-04-07T00:47:56;8.60;90.40
47338;DHT22;33069;51.970;5.892;2023-04-07T00:50:23;8.70;90.50
47338;DHT22;33069;51.970;5.892;2023-04-07T00:52:49;8.60;90.40
47338;DHT22;33069;51.970;5.892;2023-04-07T00:55:15;8.60;90.50
47338;DHT22;33069;51.970;5.892;2023-04-07T00:57:41;8.70;90.50
47338;DHT22;33069;51.970;5.892;2023-04-07T01:00:07;8.60;90.30
47338;DHT22;33069;51.970;5.892;2023-04-07T01:05:30;8.50;90.20
47338;DHT22;33069;51.970;5.892;2023-04-07T01:09:15;8.50;90.30
47338;DHT22;33069;51.970;5.892;2023-04-07T01:11:24;8.50;90.20
47338;DHT22;33069;51.970;5.892;2023-04-07T01:13:52;8.50;90.20
47338;DHT22;33069;51.970;5.892;2023-04-07T01:16:24;8.50;90.20
47338;DHT22;33069;51.970;5.892;2023-04-07T01:18:53;8.50;90.10
47338;DHT22;33069;51.970;5.892;2023-04-07T01:21:21;8.70;89.90
47338;DHT22;33069;51.970;5.892;2023-04-07T01:26:46;8.60;89.70
47338;DHT22;33069;51.970;5.892;2023-04-07T01:29:33;8.50;89.60
47338;DHT22;33069;51.970;5.892;2023-04-07T01:32:04;8.40;89.70
47338;DHT22;33069;51.970;5.892;2023-04-07T01:34:31;8.40;89.60
47338;DHT22;33069;51.970;5.892;2023-04-07T01:36:59;8.40;89.70
47338;DHT22;33069;51.970;5.892;2023-04-07T01:39:29;8.40;89.80
47338;DHT22;33069;51.970;5.892;2023-04-07T01:41:56;8.40;89.80
47338;DHT22;33069;51.970;5.892;2023-04-07T01:44:23;8.30;89.70
47338;DHT22;33069;51.970;5.892;2023-04-07T01:46:49;8.70;89.90
47338;DHT22;33069;51.970;5.892;2023-04-07T01:49:18;8.60;89.70
47338;DHT22;33069;51.970;5.892;2023-04-07T01:51:45;8.70;89.20
47338;DHT22;33069;51.970;5.892;2023-04-07T01:54:15;8.60;89.00
47338;DHT22;33069;51.970;5.892;2023-04-07T01:56:42;8.50;88.90
47338;DHT22;33069;51.970;5.892;2023-04-07T01:59:09;8.40;89.00
47338;DHT22;33069;51.970;5.892;2023-04-07T02:01:35;8.60;89.20
47338;DHT22;33069;51.970;5.892;2023-04-07T02:04:44;8.60;89.20
47338;DHT22;33069;51.970;5.892;2023-04-07T02:07:58;8.50;89.00
47338;DHT22;33069;51.970;5.892;2023-04-07T02:10:27;8.40;89.10
47338;DHT22;33069;51.970;5.892;2023-04-07T02:12:54;8.30;89.30
47338;DHT22;33069;51.970;5.892;2023-04-07T02:15:21;8.30;89.50
47338;DHT22;33069;51.970;5.892;2023-04-07T02:17:51;8.30;89.60
47338;DHT22;33069;51.970;5.892;2023-04-07T02:20:19;8.30;89.60
47338;DHT22;33069;51.970;5.892;2023-04-07T02:22:45;8.20;89.50
47338;DHT22;33069;51.970;5.892;2023-04-07T02:25:28;8.20;89.60
47338;DHT22;33069;51.970;5.892;2023-04-07T02:27:55;8.10;89.70
47338;DHT22;33069;51.970;5.892;2023-04-07T02:30:21;8.10;89.70
47338;DHT22;33069;51.970;5.892;2023-04-07T02:32:47;8.20;89.80
47338;DHT22;33069;51.970;5.892;2023-04-07T02:35:14;8.30;89.80
47338;DHT22;33069;51.970;5.892;2023-04-07T02:37:40;8.10;89.70
47338;DHT22;33069;51.970;5.892;2023-04-07T02:40:06;8.20;89.70
47338;DHT22;33069;51.970;5.892;2023-04-07T02:42:32;8.00;89.60
47338;DHT22;33069;51.970;5.892;2023-04-07T02:44:58;8.20;89.70
47338;DHT22;33069;51.970;5.892;2023-04-07T02:47:24;8.10;89.60
47338;DHT22;33069;51.970;5.892;2023-04-07T02:49:50;8.10;89.60
47338;DHT22;33069;51.970;5.892;2023-04-07T02:52:16;8.00;89.60
47338;DHT22;33069;51.970;5.892;2023-04-07T02:54:42;8.10;89.60
47338;DHT22;33069;51.970;5.892;2023-04-07T02:57:08;8.10;89.60
47338;DHT22;33069;51.970;5.892;2023-04-07T02:59:33;8.10;89.70
47338;DHT22;33069;51.970;5.892;2023-04-07T03:01:59;8.30;89.60
47338;DHT22;33069;51.970;5.892;2023-04-07T03:04:25;8.20;89.50
47338;DHT22;33069;51.970;5.892;2023-04-07T03:06:51;8.10;89.30
47338;DHT22;33069;51.970;5.892;2023-04-07T03:09:17;8.30;89.50
47338;DHT22;33069;51.970;5.892;2023-04-07T03:11:43;8.30;89.40
47338;DHT22;33069;51.970;5.892;2023-04-07T03:14:09;8.50;89.40
47338;DHT22;33069;51.970;5.892;2023-04-07T03:16:53;8.70;89.20
47338;DHT22;33069;51.970;5.892;2023-04-07T03:19:19;8.50;88.80
47338;DHT22;33069;51.970;5.892;2023-04-07T03:21:45;8.60;88.70
47338;DHT22;33069;51.970;5.892;2023-04-07T03:24:10;8.50;88.50
47338;DHT22;33069;51.970;5.892;2023-04-07T03:26:36;8.70;88.40
47338;DHT22;33069;51.970;5.892;2023-04-07T03:29:02;8.50;88.00
47338;DHT22;33069;51.970;5.892;2023-04-07T03:31:28;8.40;88.00
47338;DHT22;33069;51.970;5.892;2023-04-07T03:33:55;8.40;88.20
47338;DHT22;33069;51.970;5.892;2023-04-07T03:36:20;8.40;88.30
47338;DHT22;33069;51.970;5.892;2023-04-07T03:38:47;8.50;88.30
47338;DHT22;33069;51.970;5.892;2023-04-07T03:41:12;8.70;88.40
47338;DHT22;33069;51.970;5.892;2023-04-07T03:43:38;8.30;88.10
47338;DHT22;33069;51.970;5.892;2023-04-07T03:46:04;8.30;88.30
47338;DHT22;33069;51.970;5.892;2023-04-07T03:48:30;8.40;88.40
47338;DHT22;33069;51.970;5.892;2023-04-07T03:50:55;8.40;88.50
47338;DHT22;33069;51.970;5.892;2023-04-07T03:53:21;8.30;88.60
47338;DHT22;33069;51.970;5.892;2023-04-07T03:55:47;8.40;88.80
47338;DHT22;33069;51.970;5.892;2023-04-07T03:58:13;8.30;88.80
47338;DHT22;33069;51.970;5.892;2023-04-07T04:00:39;8.30;88.90
47338;DHT22;33069;51.970;5.892;2023-04-07T04:03:05;8.50;89.10
47338;DHT22;33069;51.970;5.892;2023-04-07T04:05:31;8.40;89.00
47338;DHT22;33069;51.970;5.892;2023-04-07T04:07:56;8.60;89.00
47338;DHT22;33069;51.970;5.892;2023-04-07T04:10:22;8.50;88.70
47338;DHT22;33069;51.970;5.892;2023-04-07T04:12:48;8.70;88.60
47338;DHT22;33069;51.970;5.892;2023-04-07T04:15:14;8.70;88.20
47338;DHT22;33069;51.970;5.892;2023-04-07T04:17:40;8.40;88.10
47338;DHT22;33069;51.970;5.892;2023-04-07T04:20:07;8.50;88.40
47338;DHT22;33069;51.970;5.892;2023-04-07T04:22:33;8.60;88.50
47338;DHT22;33069;51.970;5.892;2023-04-07T04:24:59;8.60;88.30
47338;DHT22;33069;51.970;5.892;2023-04-07T04:27:26;8.50;88.20
47338;DHT22;33069;51.970;5.892;2023-04-07T04:29:52;8.30;88.20
47338;DHT22;33069;51.970;5.892;2023-04-07T04:32:18;8.30;88.40
47338;DHT22;33069;51.970;5.892;2023-04-07T04:34:44;8.70;88.60
47338;DHT22;33069;51.970;5.892;2023-04-07T04:37:10;8.70;88.40
47338;DHT22;33069;51.970;5.892;2023-04-07T04:39:36;8.60;88.10
47338;DHT22;33069;51.970;5.892;2023-04-07T04:42:11;8.70;88.30
47338;DHT22;33069;51.970;5.892;2023-04-07T04:44:36;8.50;88.00
47338;DHT22;33069;51.970;5.892;2023-04-07T04:47:02;8.30;88.10
47338;DHT22;33069;51.970;5.892;2023-04-07T04:49:28;8.40;88.60
47338;DHT22;33069;51.970;5.892;2023-04-07T04:51:53;8.30;88.50
47338;DHT22;33069;51.970;5.892;2023-04-07T04:54:19;8.30;88.60
47338;DHT22;33069;51.970;5.892;2023-04-07T04:56:45;8.50;88.80
47338;DHT22;33069;51.970;5.892;2023-04-07T04:59:10;8.70;88.70
47338;DHT22;33069;51.970;5.892;2023-04-07T05:01:36;8.50;88.20
47338;DHT22;33069;51.970;5.892;2023-04-07T05:04:02;8.50;88.20
47338;DHT22;33069;51.970;5.892;2023-04-07T05:06:27;8.30;88.20
47338;DHT22;33069;51.970;5.892;2023-04-07T05:08:53;8.40;88.50
47338;DHT22;33069;51.970;5.892;2023-04-07T05:11:19;8.70;88.40
47338;DHT22;33069;51.970;5.892;2023-04-07T05:13:46;8.70;88.10
47338;DHT22;33069;51.970;5.892;2023-04-07T05:16:12;8.50;87.90
47338;DHT22;33069;51.970;5.892;2023-04-07T05:18:38;8.50;87.80
47338;DHT22;33069;51.970;5.892;2023-04-07T05:21:03;8.50;87.50
47338;DHT22;33069;51.970;5.892;2023-04-07T05:23:29;8.60;87.70
47338;DHT22;33069;51.970;5.892;2023-04-07T05:25:55;8.30;87.50
47338;DHT22;33069;51.970;5.892;2023-04-07T05:28:21;8.30;87.80
47338;DHT22;33069;51.970;5.892;2023-04-07T05:30:47;8.30;88.00
47338;DHT22;33069;51.970;5.892;2023-04-07T05:33:13;8.40;88.20
47338;DHT22;33069;51.970;5.892;2023-04-07T05:35:39;8.70;88.30
47338;DHT22;33069;51.970;5.892;2023-04-07T05:38:05;8.80;87.90
47338;DHT22;33069;51.970;5.892;2023-04-07T05:40:30;8.70;87.60
47338;DHT22;33069;51.970;5.892;2023-04-07T05:42:56;8.70;87.50
47338;DHT22;33069;51.970;5.892;2023-04-07T05:45:22;8.70;87.70
47338;DHT22;33069;51.970;5.892;2023-04-07T05:47:48;8.60;87.90
47338;DHT22;33069;51.970;5.892;2023-04-07T05:50:16;8.50;87.90
47338;DHT22;33069;51.970;5.892;2023-04-07T05:52:42;8.70;87.90
47338;DHT22;33069;51.970;5.892;2023-04-07T05:55:07;8.50;87.80
47338;DHT22;33069;51.970;5.892;2023-04-07T05:57:33;8.60;87.90
47338;DHT22;33069;51.970;5.892;2023-04-07T05:59:59;8.70;88.30
47338;DHT22;33069;51.970;5.892;2023-04-07T06:02:25;8.70;88.10
47338;DHT22;33069;51.970;5.892;2023-04-07T06:04:50;8.90;87.80
47338;DHT22;33069;51.970;5.892;2023-04-07T06:07:16;8.80;87.40
47338;DHT22;33069;51.970;5.892;2023-04-07T06:09:42;8.70;87.50
47338;DHT22;33069;51.970;5.892;2023-04-07T06:12:08;8.50;87.40
47338;DHT22;33069;51.970;5.892;2023-04-07T06:14:35;8.60;87.80
47338;DHT22;33069;51.970;5.892;2023-04-07T06:17:01;8.60;87.90
47338;DHT22;33069;51.970;5.892;2023-04-07T06:19:26;8.60;87.80
47338;DHT22;33069;51.970;5.892;2023-04-07T06:21:52;8.40;87.90
47338;DHT22;33069;51.970;5.892;2023-04-07T06:24:40;8.30;88.20
47338;DHT22;33069;51.970;5.892;2023-04-07T06:27:06;8.50;88.60
47338;DHT22;33069;51.970;5.892;2023-04-07T06:29:32;8.50;88.50
47338;DHT22;33069;51.970;5.892;2023-04-07T06:31:59;8.50;88.50
47338;DHT22;33069;51.970;5.892;2023-04-07T06:34:25;8.60;88.40
47338;DHT22;33069;51.970;5.892;2023-04-07T06:36:50;8.40;88.30
47338;DHT22;33069;51.970;5.892;2023-04-07T06:39:16;8.40;88.50
47338;DHT22;33069;51.970;5.892;2023-04-07T06:41:42;8.40;88.60
47338;DHT22;33069;51.970;5.892;2023-04-07T06:44:11;8.50;88.80
47338;DHT22;33069;51.970;5.892;2023-04-07T06:46:36;8.40;88.60
47338;DHT22;33069;51.970;5.892;2023-04-07T06:49:02;8.40;88.50
47338;DHT22;33069;51.970;5.892;2023-04-07T06:51:28;8.30;88.60
47338;DHT22;33069;51.970;5.892;2023-04-07T06:53:54;8.40;88.70
47338;DHT22;33069;51.970;5.892;2023-04-07T06:56:21;8.30;88.80
47338;DHT22;33069;51.970;5.892;2023-04-07T06:58:47;8.40;88.80
47338;DHT22;33069;51.970;5.892;2023-04-07T07:01:13;8.30;88.70
47338;DHT22;33069;51.970;5.892;2023-04-07T07:03:38;8.40;88.90
47338;DHT22;33069;51.970;5.892;2023-04-07T07:06:04;8.70;89.00
47338;DHT22;33069;51.970;5.892;2023-04-07T07:08:30;8.50;88.70
47338;DHT22;33069;51.970;5.892;2023-04-07T07:10:56;8.80;88.60
47338;DHT22;33069;51.970;5.892;2023-04-07T07:13:24;9.00;87.80
47338;DHT22;33069;51.970;5.892;2023-04-07T07:15:50;8.90;87.00
47338;DHT22;33069;51.970;5.892;2023-04-07T07:18:17;8.70;87.30
47338;DHT22;33069;51.970;5.892;2023-04-07T07:20:43;8.90;87.80
47338;DHT22;33069;51.970;5.892;2023-04-07T07:23:08;9.20;87.30
47338;DHT22;33069;51.970;5.892;2023-04-07T07:25:34;9.10;86.00
47338;DHT22;33069;51.970;5.892;2023-04-07T07:28:00;9.10;86.30
47338;DHT22;33069;51.970;5.892;2023-04-07T07:30:26;9.20;85.70
47338;DHT22;33069;51.970;5.892;2023-04-07T07:32:53;9.10;85.70
47338;DHT22;33069;51.970;5.892;2023-04-07T07:35:19;9.00;86.20
47338;DHT22;33069;51.970;5.892;2023-04-07T07:37:46;9.00;86.10
47338;DHT22;33069;51.970;5.892;2023-04-07T07:40:12;9.00;86.00
47338;DHT22;33069;51.970;5.892;2023-04-07T07:42:38;9.00;85.60
47338;DHT22;33069;51.970;5.892;2023-04-07T07:45:04;8.90;85.70
47338;DHT22;33069;51.970;5.892;2023-04-07T07:47:30;8.80;85.50
47338;DHT22;33069;51.970;5.892;2023-04-07T07:49:56;8.90;85.80
47338;DHT22;33069;51.970;5.892;2023-04-07T07:52:22;9.00;85.90
47338;DHT22;33069;51.970;5.892;2023-04-07T07:54:49;9.00;85.90
47338;DHT22;33069;51.970;5.892;2023-04-07T07:57:15;9.20;86.40
47338;DHT22;33069;51.970;5.892;2023-04-07T07:59:40;9.10;85.70
47338;DHT22;33069;51.970;5.892;2023-04-07T08:02:07;9.40;85.40
47338;DHT22;33069;51.970;5.892;2023-04-07T08:04:33;9.20;84.90
47338;DHT22;33069;51.970;5.892;2023-04-07T08:06:59;9.20;85.10
47338;DHT22;33069;51.970;5.892;2023-04-07T08:09:25;9.10;84.90
47338;DHT22;33069;51.970;5.892;2023-04-07T08:11:50;9.10;84.60
47338;DHT22;33069;51.970;5.892;2023-04-07T08:14:16;9.30;84.60
47338;DHT22;33069;51.970;5.892;2023-04-07T08:16:42;9.20;84.30
47338;DHT22;33069;51.970;5.892;2023-04-07T08:19:09;9.20;84.30
47338;DHT22;33069;51.970;5.892;2023-04-07T08:21:35;9.30;84.60
47338;DHT22;33069;51.970;5.892;2023-04-07T08:24:01;9.30;85.10
47338;DHT22;33069;51.970;5.892;2023-04-07T08:26:27;9.10;84.70
47338;DHT22;33069;51.970;5.892;2023-04-07T08:28:53;9.20;85.20
47338;DHT22;33069;51.970;5.892;2023-04-07T08:31:20;9.10;84.80
47338;DHT22;33069;51.970;5.892;2023-04-07T08:33:46;9.00;85.00
47338;DHT22;33069;51.970;5.892;2023-04-07T08:36:12;9.00;85.40
47338;DHT22;33069;51.970;5.892;2023-04-07T08:38:37;9.30;85.60
47338;DHT22;33069;51.970;5.892;2023-04-07T08:41:07;9.40;85.80
47338;DHT22;33069;51.970;5.892;2023-04-07T08:43:35;9.70;85.10
47338;DHT22;33069;51.970;5.892;2023-04-07T08:46:04;9.90;84.50
47338;DHT22;33069;51.970;5.892;2023-04-07T08:48:31;10.00;83.10
47338;DHT22;33069;51.970;5.892;2023-04-07T08:51:04;9.60;83.30
47338;DHT22;33069;51.970;5.892;2023-04-07T08:53:36;9.50;84.10
47338;DHT22;33069;51.970;5.892;2023-04-07T08:56:06;9.20;84.30
47338;DHT22;33069;51.970;5.892;2023-04-07T08:58:34;9.20;85.10
47338;DHT22;33069;51.970;5.892;2023-04-07T09:01:04;9.10;85.90
47338;DHT22;33069;51.970;5.892;2023-04-07T09:03:32;9.00;86.60
47338;DHT22;33069;51.970;5.892;2023-04-07T09:06:00;9.30;87.10
47338;DHT22;33069;51.970;5.892;2023-04-07T09:08:26;9.10;87.20
47338;DHT22;33069;51.970;5.892;2023-04-07T09:10:52;9.10;87.40
47338;DHT22;33069;51.970;5.892;2023-04-07T09:13:18;9.00;87.50
47338;DHT22;33069;51.970;5.892;2023-04-07T09:15:44;9.10;87.50
47338;DHT22;33069;51.970;5.892;2023-04-07T09:18:10;9.20;87.80
47338;DHT22;33069;51.970;5.892;2023-04-07T09:21:02;9.60;87.70
47338;DHT22;33069;51.970;5.892;2023-04-07T09:23:31;9.70;86.20
47338;DHT22;33069;51.970;5.892;2023-04-07T09:25:58;9.40;85.50
47338;DHT22;33069;51.970;5.892;2023-04-07T09:28:37;9.50;85.70
47338;DHT22;33069;51.970;5.892;2023-04-07T09:31:05;9.40;84.60
47338;DHT22;33069;51.970;5.892;2023-04-07T09:33:32;9.50;84.90
47338;DHT22;33069;51.970;5.892;2023-04-07T09:35:58;9.30;84.90
47338;DHT22;33069;51.970;5.892;2023-04-07T09:38:36;9.30;85.20
47338;DHT22;33069;51.970;5.892;2023-04-07T09:41:06;9.40;85.30
47338;DHT22;33069;51.970;5.892;2023-04-07T09:43:35;9.40;85.30
47338;DHT22;33069;51.970;5.892;2023-04-07T09:46:20;9.40;85.30
47338;DHT22;33069;51.970;5.892;2023-04-07T09:48:46;9.70;85.20
47338;DHT22;33069;51.970;5.892;2023-04-07T09:51:16;9.60;84.90
47338;DHT22;33069;51.970;5.892;2023-04-07T09:53:49;9.60;84.90
47338;DHT22;33069;51.970;5.892;2023-04-07T09:56:17;9.40;84.50
47338;DHT22;33069;51.970;5.892;2023-04-07T09:58:47;9.80;84.50
47338;DHT22;33069;51.970;5.892;2023-04-07T10:01:14;10.20;83.10
47338;DHT22;33069;51.970;5.892;2023-04-07T10:03:42;10.00;82.50
47338;DHT22;33069;51.970;5.892;2023-04-07T10:06:08;9.90;82.60
47338;DHT22;33069;51.970;5.892;2023-04-07T10:08:38;9.80;83.50
47338;DHT22;33069;51.970;5.892;2023-04-07T10:11:04;9.90;82.90
47338;DHT22;33069;51.970;5.892;2023-04-07T10:13:33;10.20;82.20
47338;DHT22;33069;51.970;5.892;2023-04-07T10:16:05;9.70;81.60
47338;DHT22;33069;51.970;5.892;2023-04-07T10:18:34;9.50;82.90
47338;DHT22;33069;51.970;5.892;2023-04-07T10:21:02;9.40;83.10
47338;DHT22;33069;51.970;5.892;2023-04-07T10:23:53;9.70;82.40
47338;DHT22;33069;51.970;5.892;2023-04-07T10:26:26;9.70;82.20
47338;DHT22;33069;51.970;5.892;2023-04-07T10:28:59;9.60;82.10
47338;DHT22;33069;51.970;5.892;2023-04-07T10:31:27;9.50;83.00
47338;DHT22;33069;51.970;5.892;2023-04-07T10:33:53;9.50;83.50
47338;DHT22;33069;51.970;5.892;2023-04-07T10:36:21;9.60;82.30
47338;DHT22;33069;51.970;5.892;2023-04-07T10:41:35;9.70;82.90
47338;DHT22;33069;51.970;5.892;2023-04-07T10:44:02;9.70;82.10
47338;DHT22;33069;51.970;5.892;2023-04-07T10:49:16;9.70;80.70
47338;DHT22;33069;51.970;5.892;2023-04-07T10:51:42;10.10;80.90
47338;DHT22;33069;51.970;5.892;2023-04-07T10:57:10;9.70;81.40
47338;DHT22;33069;51.970;5.892;2023-04-07T10:59:42;10.00;81.20
47338;DHT22;33069;51.970;5.892;2023-04-07T11:04:52;10.30;79.20
47338;DHT22;33069;51.970;5.892;2023-04-07T11:07:18;10.00;80.30
47338;DHT22;33069;51.970;5.892;2023-04-07T11:09:45;9.70;80.70
47338;DHT22;33069;51.970;5.892;2023-04-07T11:12:23;9.50;81.80
47338;DHT22;33069;51.970;5.892;2023-04-07T11:14:49;9.50;82.90
47338;DHT22;33069;51.970;5.892;2023-04-07T11:17:15;9.50;83.80
47338;DHT22;33069;51.970;5.892;2023-04-07T11:19:54;9.50;85.00
47338;DHT22;33069;51.970;5.892;2023-04-07T11:22:20;9.60;85.10
47338;DHT22;33069;51.970;5.892;2023-04-07T11:24:46;9.70;85.60
47338;DHT22;33069;51.970;5.892;2023-04-07T11:27:12;9.70;86.00
47338;DHT22;33069;51.970;5.892;2023-04-07T11:29:38;9.70;85.90
47338;DHT22;33069;51.970;5.892;2023-04-07T11:32:05;9.50;86.00
47338;DHT22;33069;51.970;5.892;2023-04-07T11:34:32;9.50;85.50
47338;DHT22;33069;51.970;5.892;2023-04-07T11:37:17;9.30;84.90
47338;DHT22;33069;51.970;5.892;2023-04-07T11:39:43;9.40;84.90
47338;DHT22;33069;51.970;5.892;2023-04-07T11:42:10;9.50;84.70
47338;DHT22;33069;51.970;5.892;2023-04-07T11:44:44;9.60;84.50
47338;DHT22;33069;51.970;5.892;2023-04-07T11:47:10;9.50;84.70
47338;DHT22;33069;51.970;5.892;2023-04-07T11:49:44;9.50;84.90
47338;DHT22;33069;51.970;5.892;2023-04-07T11:52:10;9.60;85.00
47338;DHT22;33069;51.970;5.892;2023-04-07T11:54:43;9.80;84.70
47338;DHT22;33069;51.970;5.892;2023-04-07T11:57:11;9.90;83.70
47338;DHT22;33069;51.970;5.892;2023-04-07T11:59:38;9.70;83.60
47338;DHT22;33069;51.970;5.892;2023-04-07T12:02:04;9.50;83.90
47338;DHT22;33069;51.970;5.892;2023-04-07T12:04:30;9.70;84.50
47338;DHT22;33069;51.970;5.892;2023-04-07T12:07:09;9.60;84.60
47338;DHT22;33069;51.970;5.892;2023-04-07T12:09:35;9.40;85.40
47338;DHT22;33069;51.970;5.892;2023-04-07T12:12:03;9.20;86.10
47338;DHT22;33069;51.970;5.892;2023-04-07T12:14:31;9.50;86.80
47338;DHT22;33069;51.970;5.892;2023-04-07T12:16:57;9.60;85.70
47338;DHT22;33069;51.970;5.892;2023-04-07T12:19:27;9.30;85.90
47338;DHT22;33069;51.970;5.892;2023-04-07T12:21:56;9.20;86.80
47338;DHT22;33069;51.970;5.892;2023-04-07T12:24:22;9.30;87.20
47338;DHT22;33069;51.970;5.892;2023-04-07T12:26:48;9.30;87.00
47338;DHT22;33069;51.970;5.892;2023-04-07T12:29:15;9.20;87.30
47338;DHT22;33069;51.970;5.892;2023-04-07T12:31:41;9.60;87.90
47338;DHT22;33069;51.970;5.892;2023-04-07T12:34:08;9.70;87.40
47338;DHT22;33069;51.970;5.892;2023-04-07T12:36:34;9.60;86.80
47338;DHT22;33069;51.970;5.892;2023-04-07T12:39:00;9.50;86.60
47338;DHT22;33069;51.970;5.892;2023-04-07T12:41:26;9.70;86.70
47338;DHT22;33069;51.970;5.892;2023-04-07T12:43:52;9.70;86.60
47338;DHT22;33069;51.970;5.892;2023-04-07T12:46:18;9.80;86.40
47338;DHT22;33069;51.970;5.892;2023-04-07T12:48:45;10.00;85.60
47338;DHT22;33069;51.970;5.892;2023-04-07T12:51:12;10.10;84.60
47338;DHT22;33069;51.970;5.892;2023-04-07T12:53:37;10.20;84.50
47338;DHT22;33069;51.970;5.892;2023-04-07T12:56:03;10.30;84.30
47338;DHT22;33069;51.970;5.892;2023-04-07T12:58:29;10.00;83.60
47338;DHT22;33069;51.970;5.892;2023-04-07T13:00:55;10.00;84.10
47338;DHT22;33069;51.970;5.892;2023-04-07T13:03:21;10.10;84.10
47338;DHT22;33069;51.970;5.892;2023-04-07T13:05:47;9.80;82.90
47338;DHT22;33069;51.970;5.892;2023-04-07T13:08:13;10.00;83.30
47338;DHT22;33069;51.970;5.892;2023-04-07T13:10:38;10.20;82.90
47338;DHT22;33069;51.970;5.892;2023-04-07T13:13:04;10.70;81.60
47338;DHT22;33069;51.970;5.892;2023-04-07T13:15:30;10.20;80.50
47338;DHT22;33069;51.970;5.892;2023-04-07T13:17:56;10.30;82.50
47338;DHT22;33069;51.970;5.892;2023-04-07T13:20:22;10.10;82.50
47338;DHT22;33069;51.970;5.892;2023-04-07T13:22:47;9.90;82.90
47338;DHT22;33069;51.970;5.892;2023-04-07T13:25:13;10.10;83.90
47338;DHT22;33069;51.970;5.892;2023-04-07T13:27:39;10.40;83.60
47338;DHT22;33069;51.970;5.892;2023-04-07T13:30:06;10.30;83.10
47338;DHT22;33069;51.970;5.892;2023-04-07T13:32:31;9.90;83.50
47338;DHT22;33069;51.970;5.892;2023-04-07T13:34:57;9.90;84.10
47338;DHT22;33069;51.970;5.892;2023-04-07T13:37:24;10.30;83.60
47338;DHT22;33069;51.970;5.892;2023-04-07T13:39:51;10.10;83.40
47338;DHT22;33069;51.970;5.892;2023-04-07T13:42:17;10.10;82.60
47338;DHT22;33069;51.970;5.892;2023-04-07T13:44:43;9.90;81.90
47338;DHT22;33069;51.970;5.892;2023-04-07T13:47:15;9.90;82.90
47338;DHT22;33069;51.970;5.892;2023-04-07T13:49:47;9.90;83.50
47338;DHT22;33069;51.970;5.892;2023-04-07T13:52:13;9.80;83.00
47338;DHT22;33069;51.970;5.892;2023-04-07T13:54:39;9.70;82.90
47338;DHT22;33069;51.970;5.892;2023-04-07T13:57:05;10.10;83.20
47338;DHT22;33069;51.970;5.892;2023-04-07T13:59:31;10.10;82.60
47338;DHT22;33069;51.970;5.892;2023-04-07T14:01:56;9.70;82.80
47338;DHT22;33069;51.970;5.892;2023-04-07T14:04:22;9.70;83.50
47338;DHT22;33069;51.970;5.892;2023-04-07T14:06:48;9.80;83.90
47338;DHT22;33069;51.970;5.892;2023-04-07T14:09:14;9.80;83.00
47338;DHT22;33069;51.970;5.892;2023-04-07T14:11:40;10.20;82.80
47338;DHT22;33069;51.970;5.892;2023-04-07T14:14:06;10.10;81.30
47338;DHT22;33069;51.970;5.892;2023-04-07T14:16:32;10.10;80.70
47338;DHT22;33069;51.970;5.892;2023-04-07T14:18:57;10.20;80.20
47338;DHT22;33069;51.970;5.892;2023-04-07T14:21:23;10.50;80.50
47338;DHT22;33069;51.970;5.892;2023-04-07T14:23:49;10.50;79.40
47338;DHT22;33069;51.970;5.892;2023-04-07T14:26:15;10.50;79.00
47338;DHT22;33069;51.970;5.892;2023-04-07T14:28:41;10.30;79.60
47338;DHT22;33069;51.970;5.892;2023-04-07T14:31:12;10.40;79.80
47338;DHT22;33069;51.970;5.892;2023-04-07T14:33:38;10.50;78.90
47338;DHT22;33069;51.970;5.892;2023-04-07T14:36:04;10.40;79.20
47338;DHT22;33069;51.970;5.892;2023-04-07T14:38:30;10.50;79.20
47338;DHT22;33069;51.970;5.892;2023-04-07T14:40:55;10.70;79.90
47338;DHT22;33069;51.970;5.892;2023-04-07T14:43:21;11.00;79.10
47338;DHT22;33069;51.970;5.892;2023-04-07T14:45:47;11.10;79.10
47338;DHT22;33069;51.970;5.892;2023-04-07T14:48:12;11.00;78.00
47338;DHT22;33069;51.970;5.892;2023-04-07T14:50:38;10.80;78.30
47338;DHT22;33069;51.970;5.892;2023-04-07T14:53:04;10.70;77.80
47338;DHT22;33069;51.970;5.892;2023-04-07T14:55:31;10.70;78.00
47338;DHT22;33069;51.970;5.892;2023-04-07T14:57:56;10.40;78.60
47338;DHT22;33069;51.970;5.892;2023-04-07T15:00:22;10.50;78.30
47338;DHT22;33069;51.970;5.892;2023-04-07T15:02:50;10.60;77.90
47338;DHT22;33069;51.970;5.892;2023-04-07T15:05:18;10.50;77.90
47338;DHT22;33069;51.970;5.892;2023-04-07T15:07:45;10.50;78.70
47338;DHT22;33069;51.970;5.892;2023-04-07T15:10:14;10.30;78.30
47338;DHT22;33069;51.970;5.892;2023-04-07T15:12:41;10.30;78.20
47338;DHT22;33069;51.970;5.892;2023-04-07T15:15:07;10.10;78.30
47338;DHT22;33069;51.970;5.892;2023-04-07T15:17:33;10.30;78.30
47338;DHT22;33069;51.970;5.892;2023-04-07T15:19:58;10.30;78.90
47338;DHT22;33069;51.970;5.892;2023-04-07T15:22:24;10.30;79.30
47338;DHT22;33069;51.970;5.892;2023-04-07T15:24:50;10.20;79.20
47338;DHT22;33069;51.970;5.892;2023-04-07T15:27:16;10.30;79.10
47338;DHT22;33069;51.970;5.892;2023-04-07T15:29:42;10.50;78.70
47338;DHT22;33069;51.970;5.892;2023-04-07T15:32:07;10.60;78.50
47338;DHT22;33069;51.970;5.892;2023-04-07T15:34:33;10.80;79.30
47338;DHT22;33069;51.970;5.892;2023-04-07T15:36:59;10.60;77.70
47338;DHT22;33069;51.970;5.892;2023-04-07T15:39:24;10.90;78.40
47338;DHT22;33069;51.970;5.892;2023-04-07T15:41:50;10.80;77.30
47338;DHT22;33069;51.970;5.892;2023-04-07T15:44:19;10.70;77.80
47338;DHT22;33069;51.970;5.892;2023-04-07T15:46:44;10.50;77.70
47338;DHT22;33069;51.970;5.892;2023-04-07T15:49:10;10.60;78.50
47338;DHT22;33069;51.970;5.892;2023-04-07T15:51:36;10.50;77.40
47338;DHT22;33069;51.970;5.892;2023-04-07T15:54:02;10.40;78.50
47338;DHT22;33069;51.970;5.892;2023-04-07T15:56:27;10.40;78.70
47338;DHT22;33069;51.970;5.892;2023-04-07T15:58:53;10.30;78.20
47338;DHT22;33069;51.970;5.892;2023-04-07T16:01:19;10.30;78.50